Time;durP1;ratioP1;P1;durP2;ratioP2;P2;SDS_P1;SDS_P2;PMS_P1;PMS_P2;Temp;Humidity;BMP_temperature;BMP_pressure;BME280_temperature;BME280_humidity;BME280_pressure;Samples;Min_cycle;Max_cycle;Signal;HPM_P1;HPM_P2
2022/02/27 00:00:07;;;;;;;;;;;;;;;;;;5112416;28;19944;-58
2022/02/27 00:02:33;;;;;;;;;;;;;;;;;;5111480;28;19914;-58
2022/02/27 00:07:46;;;;;;;;;;;;;;;;;;5111568;28;19927;-58
2022/02/27 00:10:22;;;;;;;;;;;;;;;;;;5111162;28;19904;-59
2022/02/27 00:12:59;;;;;;;;;;;;;;;;;;5111969;28;19926;-59
2022/02/27 00:20:54;;;;;;;;;;;;;;;;;;5111252;28;19931;-58
2022/02/27 00:23:30;;;;;;;;;;;;;;;;;;5111672;28;20338;-58
2022/02/27 00:25:59;;;;;;;;;;;;;;;;;;5093115;28;19949;-58
2022/02/27 00:31:17;;;;;;;;;;;;;;;;;;5047628;28;19984;-58
2022/02/27 00:33:48;;;;;;;;;;;;;;;;;;5049019;28;19912;-59
2022/02/27 00:38:59;;;;;;;;;;;;;;;;;;5048983;28;19936;-58
2022/02/27 00:41:41;;;;;;;;;;;;;;;;;;5044813;28;19908;-58
2022/02/27 00:44:10;;;;;;;;;;;;;;;;;;5049216;28;19949;-59
2022/02/27 00:46:42;;;;;;;;;;;;;;;;;;5031524;28;19905;-58
2022/02/27 00:49:24;;;;;;;;;;;;;;;;;;;;;
2022/02/27 00:52:11;;;;;;;;;;;;;;;;;;5048459;28;19951;-58
2022/02/27 00:54:45;;;;;;;;;;;;;;;;;;5048251;28;19915;-58
2022/02/27 01:00:07;;;;;;;;;;;;;;;;;;5009338;28;20395;-58
2022/02/27 01:02:47;;;;;;;;;;;;;;;;;;;;;
2022/02/27 01:05:25;;;;;;;;;;;;;;;;;;5068463;28;20357;-58
2022/02/27 01:07:53;;;;;;;;;;;;;;;;;;5068623;28;19972;-58
2022/02/27 01:10:25;;;;;;;;;;;;;;;;;;5068484;28;19927;-58
2022/02/27 01:15:37;;;;;;;;;;;;;;;;;;5068713;28;19920;-58
2022/02/27 01:18:09;;;;;;;;;;;;;;;;;;5068054;28;19944;-59
2022/02/27 01:20:38;;;;;;;;;;;;;;;;;;5068592;28;19912;-58
2022/02/27 01:25:54;;;;;;;;;;;;;;;;;;5060056;28;20314;-58
2022/02/27 01:31:11;;;;;;;;;;;;;;;;;;5110495;28;20016;-58
2022/02/27 01:33:43;;;;;;;;;;;;;;;;;;5091188;28;19904;-58
2022/02/27 01:36:12;;;;;;;;;;;;;;;;;;5110167;28;19908;-59
2022/02/27 01:38:47;;;;;;;;;;;;;;;;;;5110192;28;20053;-58
2022/02/27 01:44:05;;;;;;;;;;;;;;;;;;5109347;28;19922;-59
2022/02/27 01:46:37;;;;;;;;;;;;;;;;;;5109717;28;19904;-58
2022/02/27 01:49:21;;;;;;;;;;;;;;;;;;5110320;28;19911;-58
2022/02/27 01:51:47;;;;;;;;;;;;;;;;;;5108059;28;19927;-59
2022/02/27 01:54:16;;;;;;;;;;;;;;;;;;5103472;28;19963;-58
2022/02/27 01:56:42;;;;;;;;;;;;;;;;;;5109836;28;19975;-58
2022/02/27 02:02:12;;;;;;;;;;;;;;;;;;5102815;28;20292;-58
2022/02/27 02:04:59;;;;;;;;;;;;;;;;;;5104198;28;19972;-58
2022/02/27 02:07:24;;;;;;;;;;;;;;;;;;5109030;28;19918;-58
2022/02/27 02:12:46;;;;;;;;;;;;;;;;;;5106191;28;19935;-58
2022/02/27 02:15:22;;;;;;;;;;;;;;;;;;5073359;28;19911;-58
2022/02/27 02:17:49;;;;;;;;;;;;;;;;;;5109758;28;19928;-58
2022/02/27 02:20:18;;;;;;;;;;;;;;;;;;5109599;28;19911;-58
2022/02/27 02:23:02;;;;;;;;;;;;;;;;;;5109347;28;19911;-58
2022/02/27 02:25:31;;;;;;;;;;;;;;;;;;5109121;28;19946;-58
2022/02/27 02:28:00;;;;;;;;;;;;;;;;;;5085762;28;19911;-57
2022/02/27 02:30:29;;;;;;;;;;;;;;;;;;5109245;28;19927;-58
2022/02/27 02:35:47;;;;;;;;;;;;;;;;;;5108929;28;20269;-59
2022/02/27 02:38:24;;;;;;;;;;;;;;;;;;5109046;28;19912;-58
2022/02/27 02:43:37;;;;;;;;;;;;;;;;;;5097490;28;19920;-59
2022/02/27 02:46:03;;;;;;;;;;;;;;;;;;5087953;28;19926;-58
2022/02/27 02:48:41;;;;;;;;;;;;;;;;;;5109085;28;19904;-59
2022/02/27 02:51:23;;;;;;;;;;;;;;;;;;5108942;28;19911;-58
2022/02/27 02:53:49;;;;;;;;;;;;;;;;;;5108321;28;19903;-58
2022/02/27 02:56:28;;;;;;;;;;;;;;;;;;5108905;28;19989;-59
2022/02/27 03:02:09;;;;;;;;;;;;;;;;;;5047249;28;19912;-58
2022/02/27 03:07:31;;;;;;;;;;;;;;;;;;5105810;28;19904;-59
2022/02/27 03:09:59;;;;;;;;;;;;;;;;;;5108805;28;20112;-58
2022/02/27 03:12:40;;;;;;;;;;;;;;;;;;5109187;28;19979;-59
2022/02/27 03:20:48;;;;;;;;;;;;;;;;;;;;;
2022/02/27 03:23:23;;;;;;;;;;;;;;;;;;5108648;28;19935;-59
2022/02/27 03:25:50;;;;;;;;;;;;;;;;;;5108829;28;19944;-57
2022/02/27 03:31:14;;;;;;;;;;;;;;;;;;5108390;28;19904;-58
2022/02/27 03:33:58;;;;;;;;;;;;;;;;;;5108079;28;19991;-59
2022/02/27 03:36:42;;;;;;;;;;;;;;;;;;5108411;28;19939;-58
2022/02/27 03:42:03;;;;;;;;;;;;;;;;;;5026543;28;19941;-58
2022/02/27 03:44:51;;;;;;;;;;;;;;;;;;;;;
2022/02/27 03:47:21;;;;;;;;;;;;;;;;;;5082892;28;19939;-59
2022/02/27 03:49:56;;;;;;;;;;;;;;;;;;5108648;28;19904;-58
2022/02/27 03:52:34;;;;;;;;;;;;;;;;;;;;;
2022/02/27 03:55:19;;;;;;;;;;;;;;;;;;5078632;28;19935;-58
2022/02/27 03:57:54;;;;;;;;;;;;;;;;;;5108593;28;19912;-58
2022/02/27 04:03:08;;;;;;;;;;;;;;;;;;5109065;28;19994;-58
2022/02/27 04:05:34;;;;;;;;;;;;;;;;;;5109026;28;19904;-58
2022/02/27 04:08:04;;;;;;;;;;;;;;;;;;5112058;28;19972;-58
2022/02/27 04:16:21;;;;;;;;;;;;;;;;;;5068467;28;19909;-58
2022/02/27 04:18:49;;;;;;;;;;;;;;;;;;5069680;28;19912;-59
2022/02/27 04:21:33;;;;;;;;;;;;;;;;;;5069743;28;19912;-59
2022/02/27 04:24:28;;;;;;;;;;;;;;;;;;5085447;28;19914;-59
2022/02/27 04:27:06;;;;;;;;;;;;;;;;;;;;;
2022/02/27 04:29:38;;;;;;;;;;;;;;;;;;5111966;28;19943;-58
2022/02/27 04:35:14;;;;;;;;;;;;;;;;;;5072875;28;19904;-58
2022/02/27 04:37:46;;;;;;;;;;;;;;;;;;5097263;28;19911;-58
2022/02/27 04:40:15;;;;;;;;;;;;;;;;;;5098068;28;19904;-58
2022/02/27 04:45:42;;;;;;;;;;;;;;;;;;5026540;28;20348;-58
2022/02/27 04:48:29;;;;;;;;;;;;;;;;;;5074518;28;19904;-58
2022/02/27 04:50:57;;;;;;;;;;;;;;;;;;5090162;28;19904;-58
2022/02/27 04:56:30;;;;;;;;;;;;;;;;;;5096898;28;20341;-58
2022/02/27 04:58:59;;;;;;;;;;;;;;;;;;5098059;28;19912;-59
2022/02/27 05:01:28;;;;;;;;;;;;;;;;;;5096870;28;20413;-58
2022/02/27 05:06:46;;;;;;;;;;;;;;;;;;5093927;28;19904;-58
2022/02/27 05:09:27;;;;;;;;;;;;;;;;;;;;;
2022/02/27 05:12:00;;;;;;;;;;;;;;;;;;5094067;28;20006;-59
2022/02/27 05:14:35;;;;;;;;;;;;;;;;;;;;;
2022/02/27 05:17:17;;;;;;;;;;;;;;;;;;5091961;28;19910;-58
2022/02/27 05:19:43;;;;;;;;;;;;;;;;;;5073358;28;19912;-58
2022/02/27 05:22:15;;;;;;;;;;;;;;;;;;5096467;28;20331;-58
2022/02/27 05:24:41;;;;;;;;;;;;;;;;;;5079000;28;19904;-58
2022/02/27 05:27:10;;;;;;;;;;;;;;;;;;5096739;28;19963;-58
2022/02/27 05:29:48;;;;;;;;;;;;;;;;;;5096418;28;20414;-59
2022/02/27 05:32:15;;;;;;;;;;;;;;;;;;5088628;28;19911;-58
2022/02/27 05:37:26;;;;;;;;;;;;;;;;;;5110729;28;19911;-58
2022/02/27 05:40:03;;;;;;;;;;;;;;;;;;5110459;28;19951;-58
2022/02/27 05:42:46;;;;;;;;;;;;;;;;;;;;;
2022/02/27 05:45:13;;;;;;;;;;;;;;;;;;5103869;28;19955;-59
2022/02/27 05:47:54;;;;;;;;;;;;;;;;;;5110718;28;19934;-58
2022/02/27 05:50:23;;;;;;;;;;;;;;;;;;5091383;28;19908;-59
2022/02/27 05:53:08;;;;;;;;;;;;;;;;;;5109900;28;19904;-59
2022/02/27 05:55:57;;;;;;;;;;;;;;;;;;5109801;28;19912;-59
2022/02/27 06:01:41;;;;;;;;;;;;;;;;;;;;;
2022/02/27 06:04:25;;;;;;;;;;;;;;;;;;5103367;28;19932;-58
2022/02/27 06:06:57;;;;;;;;;;;;;;;;;;5093197;28;19904;-58
2022/02/27 06:12:10;;;;;;;;;;;;;;;;;;5109808;28;19918;-59
2022/02/27 06:14:36;;;;;;;;;;;;;;;;;;5092208;28;19908;-58
2022/02/27 06:17:21;;;;;;;;;;;;;;;;;;5109254;28;19995;-58
2022/02/27 06:23:10;;;;;;;;;;;;;;;;;;5047339;28;19971;-59
2022/02/27 06:25:45;;;;;;;;;;;;;;;;;;5066895;28;19976;-59
2022/02/27 06:28:24;;;;;;;;;;;;;;;;;;5066506;28;19905;-58
2022/02/27 06:31:08;;;;;;;;;;;;;;;;;;5050254;28;19904;-58
2022/02/27 06:33:44;;;;;;;;;;;;;;;;;;5074466;28;19995;-58
2022/02/27 06:36:10;;;;;;;;;;;;;;;;;;5090364;28;19903;-58
2022/02/27 06:38:38;;;;;;;;;;;;;;;;;;5109626;28;19981;-58
2022/02/27 06:41:17;;;;;;;;;;;;;;;;;;;;;
2022/02/27 06:43:49;;;;;;;;;;;;;;;;;;5109361;28;19935;-58
2022/02/27 06:46:19;;;;;;;;;;;;;;;;;;5108027;28;19916;-59
2022/02/27 06:48:45;;;;;;;;;;;;;;;;;;5109208;28;19907;-57
2022/02/27 06:51:17;;;;;;;;;;;;;;;;;;5108658;28;20057;-58
2022/02/27 06:53:53;;;;;;;;;;;;;;;;;;5091631;28;19904;-57
2022/02/27 06:56:23;;;;;;;;;;;;;;;;;;5108836;28;19930;-58
2022/02/27 06:58:55;;;;;;;;;;;;;;;;;;5109050;28;19916;-59
2022/02/27 07:01:34;;;;;;;;;;;;;;;;;;5108298;28;19911;-57
2022/02/27 07:04:03;;;;;;;;;;;;;;;;;;5108867;28;19991;-58
2022/02/27 07:06:34;;;;;;;;;;;;;;;;;;5109152;28;20416;-58
2022/02/27 07:09:07;;;;;;;;;;;;;;;;;;5109051;28;19904;-59
2022/02/27 07:11:36;;;;;;;;;;;;;;;;;;5066153;28;19905;-58
2022/02/27 07:14:05;;;;;;;;;;;;;;;;;;5049579;28;19912;-58
2022/02/27 07:16:35;;;;;;;;;;;;;;;;;;5066492;28;19964;-58
2022/02/27 07:19:01;;;;;;;;;;;;;;;;;;5066615;28;19943;-58
2022/02/27 07:21:40;;;;;;;;;;;;;;;;;;5066639;28;19912;-58
2022/02/27 07:24:25;;;;;;;;;;;;;;;;;;5066329;28;19905;-58
2022/02/27 07:27:06;;;;;;;;;;;;;;;;;;5066737;28;20005;-58
2022/02/27 07:29:44;;;;;;;;;;;;;;;;;;5066373;28;19905;-58
2022/02/27 07:32:28;;;;;;;;;;;;;;;;;;5066608;28;19912;-58
2022/02/27 07:35:06;;;;;;;;;;;;;;;;;;5066782;28;19912;-58
2022/02/27 07:37:34;;;;;;;;;;;;;;;;;;5066195;28;19958;-58
2022/02/27 07:40:21;;;;;;;;;;;;;;;;;;5050339;28;19959;-58
2022/02/27 07:45:39;;;;;;;;;;;;;;;;;;5054444;28;19931;-58
2022/02/27 07:51:00;;;;;;;;;;;;;;;;;;;;;
2022/02/27 07:53:29;;;;;;;;;;;;;;;;;;5111992;28;19931;-58
2022/02/27 07:55:55;;;;;;;;;;;;;;;;;;5112005;28;20328;-59
2022/02/27 07:58:21;;;;;;;;;;;;;;;;;;5112378;28;19919;-58
2022/02/27 08:00:47;;;;;;;;;;;;;;;;;;5111863;28;19919;-58
2022/02/27 08:11:44;;;;;;;;;;;;;;;;;;5111454;28;19911;-57
2022/02/27 08:14:11;;;;;;;;;;;;;;;;;;5111881;28;19911;-57
2022/02/27 08:16:36;;;;;;;;;;;;;;;;;;5093198;28;20019;-59
2022/02/27 08:19:02;;;;;;;;;;;;;;;;;;5111634;28;20353;-58
2022/02/27 08:27:21;;;;;;;;;;;;;;;;;;5029329;28;19905;-59
2022/02/27 08:29:49;;;;;;;;;;;;;;;;;;5012681;28;20105;-59
2022/02/27 08:32:25;;;;;;;;;;;;;;;;;;5086501;28;19904;-58
2022/02/27 08:34:54;;;;;;;;;;;;;;;;;;5111790;28;19904;-58
2022/02/27 08:37:21;;;;;;;;;;;;;;;;;;5111119;28;19903;-58
2022/02/27 08:45:50;;;;;;;;;;;;;;;;;;5040414;28;19939;-59
2022/02/27 08:48:28;;;;;;;;;;;;;;;;;;5091040;28;19923;-59
2022/02/27 08:50:54;;;;;;;;;;;;;;;;;;5110858;28;19911;-59
2022/02/27 08:56:07;;;;;;;;;;;;;;;;;;5100291;28;19904;-59
2022/02/27 09:04:10;;;;;;;;;;;;;;;;;;5108613;28;19926;-58
2022/02/27 09:06:40;;;;;;;;;;;;;;;;;;5108805;28;19904;-58
2022/02/27 09:14:53;;;;;;;;;;;;;;;;;;;;;
2022/02/27 09:17:27;;;;;;;;;;;;;;;;;;5057952;28;19947;-59
2022/02/27 09:20:00;;;;;;;;;;;;;;;;;;5110279;28;19912;-59
2022/02/27 09:25:31;;;;;;;;;;;;;;;;;;;;;
2022/02/27 09:28:09;;;;;;;;;;;;;;;;;;5106597;28;19939;-59
2022/02/27 09:30:41;;;;;;;;;;;;;;;;;;5091663;28;19907;-59
2022/02/27 09:35:54;;;;;;;;;;;;;;;;;;5110077;28;19911;-58
2022/02/27 09:41:05;;;;;;;;;;;;;;;;;;5109321;28;19910;-58
2022/02/27 09:43:48;;;;;;;;;;;;;;;;;;5110736;28;19947;-57
2022/02/27 09:46:19;;;;;;;;;;;;;;;;;;5109372;28;19910;-59
2022/02/27 09:51:33;;;;;;;;;;;;;;;;;;5110455;28;19911;-59
2022/02/27 09:56:59;;;;;;;;;;;;;;;;;;5047470;28;19912;-59
2022/02/27 09:59:31;;;;;;;;;;;;;;;;;;5040406;28;19912;-59
2022/02/27 10:02:00;;;;;;;;;;;;;;;;;;5110616;28;19963;-58
2022/02/27 10:07:12;;;;;;;;;;;;;;;;;;5109925;28;19963;-58
2022/02/27 10:09:44;;;;;;;;;;;;;;;;;;5110001;28;19904;-59
2022/02/27 10:12:26;;;;;;;;;;;;;;;;;;5090940;28;19953;-58
2022/02/27 10:15:01;;;;;;;;;;;;;;;;;;5092419;28;19904;-59
2022/02/27 10:17:33;;;;;;;;;;;;;;;;;;5110151;28;19904;-58
2022/02/27 10:25:33;;;;;;;;;;;;;;;;;;5028049;28;19905;-59
2022/02/27 10:28:05;;;;;;;;;;;;;;;;;;5027786;28;19905;-59
2022/02/27 10:33:32;;;;;;;;;;;;;;;;;;5023075;28;19945;-59
2022/02/27 10:35:58;;;;;;;;;;;;;;;;;;5039680;28;19908;-59
2022/02/27 10:41:21;;;;;;;;;;;;;;;;;;;;;
2022/02/27 10:46:36;;;;;;;;;;;;;;;;;;5108560;28;19946;-59
2022/02/27 10:52:04;;;;;;;;;;;;;;;;;;5109415;28;19926;-59
2022/02/27 10:54:43;;;;;;;;;;;;;;;;;;5109198;28;19904;-59
2022/02/27 10:57:15;;;;;;;;;;;;;;;;;;5109306;28;19908;-59
2022/02/27 10:59:44;;;;;;;;;;;;;;;;;;5109738;28;19912;-59
2022/02/27 11:05:13;;;;;;;;;;;;;;;;;;5085803;28;19910;-58
2022/02/27 11:16:31;;;;;;;;;;;;;;;;;;5049190;28;19927;-56
2022/02/27 11:19:06;;;;;;;;;;;;;;;;;;5049282;28;19920;-59
2022/02/27 11:30:11;;;;;;;;;;;;;;;;;;5089820;28;19911;-60
2022/02/27 11:32:50;;;;;;;;;;;;;;;;;;;;;
2022/02/27 11:35:23;;;;;;;;;;;;;;;;;;5099966;28;19942;-60
2022/02/27 11:37:55;;;;;;;;;;;;;;;;;;5112673;28;19940;-60
2022/02/27 11:40:37;;;;;;;;;;;;;;;;;;5112662;28;19916;-59
2022/02/27 11:43:18;;;;;;;;;;;;;;;;;;5112810;28;19904;-60
2022/02/27 11:48:37;;;;;;;;;;;;;;;;;;5093198;28;19926;-59
2022/02/27 11:51:19;;;;;;;;;;;;;;;;;;;;;
2022/02/27 11:53:48;;;;;;;;;;;;;;;;;;5074174;28;19904;-60
2022/02/27 11:56:14;;;;;;;;;;;;;;;;;;5077315;28;19910;-59
2022/02/27 11:59:02;;;;;;;;;;;;;;;;;;;;;
2022/02/27 12:01:44;;;;;;;;;;;;;;;;;;5077379;28;20251;-60
2022/02/27 12:04:12;;;;;;;;;;;;;;;;;;5076870;28;19904;-59
2022/02/27 12:12:16;;;;;;;;;;;;;;;;;;5077112;28;19951;-57
2022/02/27 12:14:43;;;;;;;;;;;;;;;;;;5077165;28;20350;-57
2022/02/27 12:17:12;;;;;;;;;;;;;;;;;;5051790;28;19940;-59
2022/02/27 12:19:48;;;;;;;;;;;;;;;;;;;;;
2022/02/27 12:25:30;;;;;;;;;;;;;;;;;;5005472;28;19940;-56
2022/02/27 12:30:41;;;;;;;;;;;;;;;;;;5077292;28;19911;-60
2022/02/27 12:33:07;;;;;;;;;;;;;;;;;;5076700;28;20278;-60
2022/02/27 12:38:32;;;;;;;;;;;;;;;;;;5045406;28;19970;-60
2022/02/27 12:41:00;;;;;;;;;;;;;;;;;;5077614;28;20301;-59
2022/02/27 12:46:18;;;;;;;;;;;;;;;;;;5062032;28;19904;-59
2022/02/27 12:51:37;;;;;;;;;;;;;;;;;;5096949;28;20415;-59
2022/02/27 12:54:13;;;;;;;;;;;;;;;;;;;;;
2022/02/27 12:56:45;;;;;;;;;;;;;;;;;;5097304;28;19904;-59
2022/02/27 12:59:11;;;;;;;;;;;;;;;;;;5097377;28;19966;-60
2022/02/27 13:07:19;;;;;;;;;;;;;;;;;;5081957;28;19947;-59
2022/02/27 13:09:57;;;;;;;;;;;;;;;;;;5097906;28;19926;-59
2022/02/27 13:12:28;;;;;;;;;;;;;;;;;;5096971;28;20349;-60
2022/02/27 13:15:07;;;;;;;;;;;;;;;;;;5078647;28;20422;-59
2022/02/27 13:17:48;;;;;;;;;;;;;;;;;;5095935;28;20007;-60
2022/02/27 13:23:00;;;;;;;;;;;;;;;;;;5064703;28;19904;-60
2022/02/27 13:28:19;;;;;;;;;;;;;;;;;;5034320;28;19941;-60
2022/02/27 13:30:45;;;;;;;;;;;;;;;;;;5042206;28;20342;-59
2022/02/27 13:33:10;;;;;;;;;;;;;;;;;;5096307;28;19911;-60
2022/02/27 13:35:36;;;;;;;;;;;;;;;;;;5078994;28;19904;-60
2022/02/27 13:40:54;;;;;;;;;;;;;;;;;;5090828;28;19911;-60
2022/02/27 13:43:26;;;;;;;;;;;;;;;;;;5096333;28;20436;-59
2022/02/27 13:48:48;;;;;;;;;;;;;;;;;;5096005;28;19934;-60
2022/02/27 13:54:19;;;;;;;;;;;;;;;;;;5052716;28;20088;-59
2022/02/27 13:57:07;;;;;;;;;;;;;;;;;;5053350;28;19905;-59
2022/02/27 13:59:50;;;;;;;;;;;;;;;;;;5077755;28;19912;-59
2022/02/27 14:02:29;;;;;;;;;;;;;;;;;;;;;
2022/02/27 14:04:55;;;;;;;;;;;;;;;;;;5043556;28;20341;-59
2022/02/27 14:07:32;;;;;;;;;;;;;;;;;;5095298;28;19908;-59
2022/02/27 14:12:52;;;;;;;;;;;;;;;;;;5095270;28;19911;-58
2022/02/27 14:15:34;;;;;;;;;;;;;;;;;;;;;
2022/02/27 14:18:03;;;;;;;;;;;;;;;;;;5095568;28;20244;-59
2022/02/27 14:20:54;;;;;;;;;;;;;;;;;;5095677;28;19908;-58
2022/02/27 14:24:00;;;;;;;;;;;;;;;;;;5093891;28;19903;-58
2022/02/27 14:26:10;;;;;;;;;;;;;;;;;;5086766;28;19908;-58
2022/02/27 14:28:36;;;;;;;;;;;;;;;;;;5074880;28;19908;-58
2022/02/27 14:31:02;;;;;;;;;;;;;;;;;;5094494;28;19946;-58
2022/02/27 14:33:43;;;;;;;;;;;;;;;;;;5073691;28;20014;-58
2022/02/27 14:36:09;;;;;;;;;;;;;;;;;;5095878;28;19975;-58
2022/02/27 14:38:38;;;;;;;;;;;;;;;;;;5075570;28;20373;-58
2022/02/27 14:41:07;;;;;;;;;;;;;;;;;;5071635;28;19911;-59
2022/02/27 14:46:48;;;;;;;;;;;;;;;;;;5060536;28;19953;-59
2022/02/27 14:49:30;;;;;;;;;;;;;;;;;;5075057;28;20238;-60
2022/02/27 14:52:12;;;;;;;;;;;;;;;;;;5093633;28;19916;-60
2022/02/27 14:57:52;;;;;;;;;;;;;;;;;;5031904;28;19968;-60
2022/02/27 15:00:23;;;;;;;;;;;;;;;;;;5012271;28;20324;-59
2022/02/27 15:03:01;;;;;;;;;;;;;;;;;;5046231;28;19904;-60
2022/02/27 15:05:38;;;;;;;;;;;;;;;;;;5053411;28;20368;-60
2022/02/27 15:08:12;;;;;;;;;;;;;;;;;;5072992;28;19965;-60
2022/02/27 15:10:59;;;;;;;;;;;;;;;;;;5072914;28;20362;-60
2022/02/27 15:13:25;;;;;;;;;;;;;;;;;;5071954;28;19908;-60
2022/02/27 15:15:58;;;;;;;;;;;;;;;;;;5032409;28;19927;-59
2022/02/27 15:18:33;;;;;;;;;;;;;;;;;;5032181;28;20359;-59
2022/02/27 15:21:01;;;;;;;;;;;;;;;;;;5032187;28;19959;-59
2022/02/27 15:29:20;;;;;;;;;;;;;;;;;;5013197;28;19909;-60
2022/02/27 15:32:12;;;;;;;;;;;;;;;;;;;;;
2022/02/27 15:34:44;;;;;;;;;;;;;;;;;;5012582;28;19913;-59
2022/02/27 15:39:55;;;;;;;;;;;;;;;;;;5012776;28;19975;-59
2022/02/27 15:42:22;;;;;;;;;;;;;;;;;;5012120;28;20252;-59
2022/02/27 15:50:43;;;;;;;;;;;;;;;;;;5011886;28;19932;-59
2022/02/27 15:56:03;;;;;;;;;;;;;;;;;;5094972;28;19911;-60
2022/02/27 16:01:28;;;;;;;;;;;;;;;;;;;;;
2022/02/27 16:06:48;;;;;;;;;;;;;;;;;;5072322;28;19957;-59
2022/02/27 16:09:23;;;;;;;;;;;;;;;;;;5097652;28;19907;-60
2022/02/27 16:12:00;;;;;;;;;;;;;;;;;;5078938;28;19907;-60
2022/02/27 16:14:29;;;;;;;;;;;;;;;;;;5078344;28;20302;-59
2022/02/27 16:16:58;;;;;;;;;;;;;;;;;;5097220;28;19911;-60
2022/02/27 16:19:29;;;;;;;;;;;;;;;;;;5097174;28;19912;-59
2022/02/27 16:22:04;;;;;;;;;;;;;;;;;;5098141;28;19931;-59
2022/02/27 16:24:49;;;;;;;;;;;;;;;;;;5097878;28;20296;-59
2022/02/27 16:27:38;;;;;;;;;;;;;;;;;;;;;
2022/02/27 16:32:50;;;;;;;;;;;;;;;;;;4975181;28;19906;-60
2022/02/27 16:38:22;;;;;;;;;;;;;;;;;;;;;
2022/02/27 16:41:03;;;;;;;;;;;;;;;;;;4973965;28;19928;-59
2022/02/27 16:43:48;;;;;;;;;;;;;;;;;;5001469;28;20419;-59
2022/02/27 16:46:14;;;;;;;;;;;;;;;;;;5097025;28;19911;-59
2022/02/27 16:48:41;;;;;;;;;;;;;;;;;;5097025;28;19904;-59
2022/02/27 16:59:54;;;;;;;;;;;;;;;;;;5097350;28;19958;-59
2022/02/27 17:02:33;;;;;;;;;;;;;;;;;;;;;
2022/02/27 17:05:24;;;;;;;;;;;;;;;;;;;;;
2022/02/27 17:07:51;;;;;;;;;;;;;;;;;;5096671;28;19904;-60
2022/02/27 17:10:35;;;;;;;;;;;;;;;;;;5074908;28;20416;-59
2022/02/27 17:15:47;;;;;;;;;;;;;;;;;;5096445;28;19910;-60
2022/02/27 17:18:16;;;;;;;;;;;;;;;;;;5097084;28;19995;-59
2022/02/27 17:20:54;;;;;;;;;;;;;;;;;;5064900;28;19904;-59
2022/02/27 17:23:20;;;;;;;;;;;;;;;;;;5096257;28;19982;-59
2022/02/27 17:25:54;;;;;;;;;;;;;;;;;;5096257;28;19975;-59
2022/02/27 17:28:20;;;;;;;;;;;;;;;;;;5077861;28;19904;-59
2022/02/27 17:34:00;;;;;;;;;;;;;;;;;;5013680;28;19905;-59
2022/02/27 17:36:40;;;;;;;;;;;;;;;;;;5014780;28;20263;-60
2022/02/27 17:39:18;;;;;;;;;;;;;;;;;;5013699;28;19913;-60
2022/02/27 17:47:45;;;;;;;;;;;;;;;;;;5013945;28;20303;-59
2022/02/27 17:50:11;;;;;;;;;;;;;;;;;;5013846;28;19905;-60
2022/02/27 17:52:49;;;;;;;;;;;;;;;;;;5013028;28;19948;-60
2022/02/27 17:55:29;;;;;;;;;;;;;;;;;;5013581;28;19921;-60
2022/02/27 17:58:03;;;;;;;;;;;;;;;;;;5013802;28;20363;-60
2022/02/27 18:00:44;;;;;;;;;;;;;;;;;;5014334;28;19920;-60
2022/02/27 18:03:29;;;;;;;;;;;;;;;;;;;;;
2022/02/27 18:11:35;;;;;;;;;;;;;;;;;;5080090;28;19912;-60
2022/02/27 18:16:50;;;;;;;;;;;;;;;;;;5108104;28;19958;-60
2022/02/27 18:19:18;;;;;;;;;;;;;;;;;;5108032;28;19919;-60
2022/02/27 18:21:43;;;;;;;;;;;;;;;;;;5108380;28;19943;-60
2022/02/27 18:24:29;;;;;;;;;;;;;;;;;;;;;
2022/02/27 18:26:55;;;;;;;;;;;;;;;;;;5108537;28;19934;-60
2022/02/27 18:29:21;;;;;;;;;;;;;;;;;;5108690;28;19904;-60
2022/02/27 18:31:48;;;;;;;;;;;;;;;;;;5108383;28;19963;-60
2022/02/27 18:37:17;;;;;;;;;;;;;;;;;;5043222;28;19912;-60
2022/02/27 18:39:47;;;;;;;;;;;;;;;;;;5095738;28;19947;-60
2022/02/27 18:42:13;;;;;;;;;;;;;;;;;;5108374;28;19904;-60
2022/02/27 18:50:20;;;;;;;;;;;;;;;;;;5107973;28;19911;-60
2022/02/27 18:52:49;;;;;;;;;;;;;;;;;;5108420;28;19911;-60
2022/02/27 18:55:18;;;;;;;;;;;;;;;;;;5088163;28;19916;-60
2022/02/27 19:00:34;;;;;;;;;;;;;;;;;;5107525;28;19919;-60
2022/02/27 19:03:02;;;;;;;;;;;;;;;;;;5091210;28;19912;-60
2022/02/27 19:08:18;;;;;;;;;;;;;;;;;;5107902;28;19957;-60
2022/02/27 19:10:47;;;;;;;;;;;;;;;;;;5065815;28;19958;-60
2022/02/27 19:16:00;;;;;;;;;;;;;;;;;;5065103;28;20396;-60
2022/02/27 19:18:30;;;;;;;;;;;;;;;;;;5064732;28;19905;-60
2022/02/27 19:20:58;;;;;;;;;;;;;;;;;;5064996;28;19905;-60
2022/02/27 19:23:42;;;;;;;;;;;;;;;;;;5063597;28;19955;-60
2022/02/27 19:26:14;;;;;;;;;;;;;;;;;;5064758;28;19964;-60
2022/02/27 19:28:44;;;;;;;;;;;;;;;;;;5065398;28;19951;-60
2022/02/27 19:31:11;;;;;;;;;;;;;;;;;;5065499;28;19908;-60
2022/02/27 19:33:48;;;;;;;;;;;;;;;;;;;;;
2022/02/27 19:36:14;;;;;;;;;;;;;;;;;;5066543;28;19981;-60
2022/02/27 19:41:24;;;;;;;;;;;;;;;;;;5069409;28;19928;-60
2022/02/27 19:43:53;;;;;;;;;;;;;;;;;;5069402;28;20326;-60
2022/02/27 19:46:26;;;;;;;;;;;;;;;;;;5069507;28;19905;-60
2022/02/27 19:51:51;;;;;;;;;;;;;;;;;;5109844;28;19939;-60
2022/02/27 19:54:42;;;;;;;;;;;;;;;;;;;;;
2022/02/27 19:57:09;;;;;;;;;;;;;;;;;;5112017;28;19942;-60
2022/02/27 19:59:44;;;;;;;;;;;;;;;;;;5094357;28;19919;-60
2022/02/27 20:02:23;;;;;;;;;;;;;;;;;;;;;
2022/02/27 20:04:49;;;;;;;;;;;;;;;;;;5107371;28;20407;-60
2022/02/27 20:07:15;;;;;;;;;;;;;;;;;;5112007;28;20365;-60
2022/02/27 20:12:26;;;;;;;;;;;;;;;;;;5111955;28;19915;-59
2022/02/27 20:15:01;;;;;;;;;;;;;;;;;;5092300;28;19904;-60
2022/02/27 20:17:46;;;;;;;;;;;;;;;;;;5091172;28;19908;-60
2022/02/27 20:28:42;;;;;;;;;;;;;;;;;;5111808;28;19912;-60
2022/02/27 20:31:14;;;;;;;;;;;;;;;;;;5111719;28;19908;-60
2022/02/27 20:33:50;;;;;;;;;;;;;;;;;;;;;
2022/02/27 20:36:29;;;;;;;;;;;;;;;;;;5108870;28;19931;-60
2022/02/27 20:41:53;;;;;;;;;;;;;;;;;;5070235;28;19904;-59
2022/02/27 20:44:19;;;;;;;;;;;;;;;;;;5111662;28;19904;-60
2022/02/27 20:46:54;;;;;;;;;;;;;;;;;;5111583;28;19911;-60
2022/02/27 20:49:23;;;;;;;;;;;;;;;;;;5111573;28;19904;-60
2022/02/27 20:51:55;;;;;;;;;;;;;;;;;;5093289;28;19912;-59
2022/02/27 20:54:26;;;;;;;;;;;;;;;;;;5111508;28;19923;-60
2022/02/27 20:56:52;;;;;;;;;;;;;;;;;;5091295;28;19916;-59
2022/02/27 20:59:18;;;;;;;;;;;;;;;;;;5093890;28;20251;-60
2022/02/27 21:01:51;;;;;;;;;;;;;;;;;;5111392;28;19904;-60
2022/02/27 21:04:17;;;;;;;;;;;;;;;;;;5093107;28;19943;-60
2022/02/27 21:06:49;;;;;;;;;;;;;;;;;;5111610;28;19904;-60
2022/02/27 21:12:02;;;;;;;;;;;;;;;;;;5111467;28;19911;-60
2022/02/27 21:17:25;;;;;;;;;;;;;;;;;;5111734;28;19915;-60
2022/02/27 21:19:51;;;;;;;;;;;;;;;;;;5090722;28;19916;-60
2022/02/27 21:22:20;;;;;;;;;;;;;;;;;;5111091;28;19904;-59
2022/02/27 21:27:36;;;;;;;;;;;;;;;;;;5107617;28;19926;-60
2022/02/27 21:30:04;;;;;;;;;;;;;;;;;;5110626;28;19904;-60
2022/02/27 21:32:49;;;;;;;;;;;;;;;;;;;;;
2022/02/27 21:35:25;;;;;;;;;;;;;;;;;;5106537;28;19943;-60
2022/02/27 21:38:01;;;;;;;;;;;;;;;;;;5092119;28;20624;-60
2022/02/27 21:43:22;;;;;;;;;;;;;;;;;;5092664;28;19904;-60
2022/02/27 21:46:04;;;;;;;;;;;;;;;;;;;;;
2022/02/27 21:48:56;;;;;;;;;;;;;;;;;;;;;
2022/02/27 21:51:47;;;;;;;;;;;;;;;;;;;;;
2022/02/27 21:57:18;;;;;;;;;;;;;;;;;;5095395;28;19923;-60
2022/02/27 22:00:06;;;;;;;;;;;;;;;;;;;;;
2022/02/27 22:02:36;;;;;;;;;;;;;;;;;;5109366;28;19931;-59
2022/02/27 22:08:01;;;;;;;;;;;;;;;;;;5047400;28;19912;-60
2022/02/27 22:13:43;;;;;;;;;;;;;;;;;;5028219;28;20003;-60
2022/02/27 22:16:21;;;;;;;;;;;;;;;;;;5028031;28;20049;-60
2022/02/27 22:22:02;;;;;;;;;;;;;;;;;;5017603;28;20004;-60
2022/02/27 22:24:34;;;;;;;;;;;;;;;;;;5087451;28;19908;-60
2022/02/27 22:29:46;;;;;;;;;;;;;;;;;;5087661;28;19919;-59
2022/02/27 22:32:15;;;;;;;;;;;;;;;;;;5046924;28;19928;-60
2022/02/27 22:37:28;;;;;;;;;;;;;;;;;;5046947;28;19909;-60
2022/02/27 22:39:59;;;;;;;;;;;;;;;;;;5067195;28;19913;-60
2022/02/27 22:42:37;;;;;;;;;;;;;;;;;;5046780;28;19912;-59
2022/02/27 22:45:09;;;;;;;;;;;;;;;;;;5047437;28;19905;-60
2022/02/27 22:47:49;;;;;;;;;;;;;;;;;;5030263;28;19912;-59
2022/02/27 22:50:21;;;;;;;;;;;;;;;;;;5047515;28;19940;-60
2022/02/27 22:52:53;;;;;;;;;;;;;;;;;;5030530;28;19955;-60
2022/02/27 23:00:58;;;;;;;;;;;;;;;;;;5017298;28;19909;-60
2022/02/27 23:09:22;;;;;;;;;;;;;;;;;;;;;
2022/02/27 23:14:40;;;;;;;;;;;;;;;;;;5047442;28;19912;-60
2022/02/27 23:17:09;;;;;;;;;;;;;;;;;;5082209;28;19964;-60
2022/02/27 23:19:54;;;;;;;;;;;;;;;;;;5120268;28;19938;-59
2022/02/27 23:22:20;;;;;;;;;;;;;;;;;;5113312;28;19955;-60
2022/02/27 23:25:05;;;;;;;;;;;;;;;;;;;;;
2022/02/27 23:30:20;;;;;;;;;;;;;;;;;;5051021;28;19932;-60
2022/02/27 23:32:55;;;;;;;;;;;;;;;;;;5087498;28;19904;-60
2022/02/27 23:35:56;;;;;;;;;;;;;;;;;;5112944;28;19904;-60
2022/02/27 23:38:18;;;;;;;;;;;;;;;;;;5108681;28;19914;-60
2022/02/27 23:40:53;;;;;;;;;;;;;;;;;;5113244;28;19987;-60
2022/02/27 23:43:22;;;;;;;;;;;;;;;;;;5113413;28;19904;-60
2022/02/27 23:45:56;;;;;;;;;;;;;;;;;;5112902;28;19931;-59
2022/02/27 23:48:42;;;;;;;;;;;;;;;;;;;;;
2022/02/27 23:51:14;;;;;;;;;;;;;;;;;;5113100;28;19947;-60
2022/02/27 23:53:43;;;;;;;;;;;;;;;;;;5112182;28;19926;-60
2022/02/27 23:56:15;;;;;;;;;;;;;;;;;;5111472;28;19951;-60
